Upper Allen, Pennsylvania
Current Conditions -  °F | °C
As of 6:56 AM on Friday 19 Dec 2014 (Local Time) from KCXY Reporting Station
Overcast Overcast  
Wind Chill: 29°   Ceiling: 2900
Heat Index: 35°   Visibility: 10mi
Dew Point: 24°   Wind: 8mph
Humidity: 64%   Direction: 280°W
Pressure: 30.09"   Gusts: NA
Location:  40.208°N, 77.0098°W
Report Text: KCXY 191156Z 28007KT 10SM OVC029 02/M04 A3009 RMK AO2 SLP192 T00171044 10017 20011 53005
Loading
Personal Weather Stations






























Interactive Weather Map New forecast layout! Learn more

10-Day Weather Forecast

Advertisements
Track Severe Weather on mobile